Time;durP1;ratioP1;P1;durP2;ratioP2;P2;SDS_P1;SDS_P2;PMS_P1;PMS_P2;Temp;Humidity;BMP_temperature;BMP_pressure;BME280_temperature;BME280_humidity;BME280_pressure;Samples;Min_cycle;Max_cycle;Signal;HPM_P1;HPM_P2
2022/11/07 00:02:16;;;;;;;9.32;2.58;;;;;;;;;;5067264;28;20033;-64
2022/11/07 00:04:41;;;;;;;10.82;2.80;;;;;;;;;;5068121;28;20024;-64
2022/11/07 00:07:07;;;;;;;12.10;3.53;;;;;;;;;;5067574;28;20031;-64
2022/11/07 00:09:32;;;;;;;8.05;2.40;;;;;;;;;;5067703;28;20106;-64
2022/11/07 00:11:58;;;;;;;9.30;2.83;;;;;;;;;;5044039;28;20033;-64
2022/11/07 00:14:23;;;;;;;8.10;2.40;;;;;;;;;;5053374;28;20029;-65
2022/11/07 00:16:49;;;;;;;7.15;2.53;;;;;;;;;;5067468;28;20031;-64
2022/11/07 00:19:18;;;;;;;9.50;2.30;;;;;;;;;;5067787;28;20024;-64
2022/11/07 00:21:44;;;;;;;4.78;1.98;;;;;;;;;;5065922;28;20124;-64
2022/11/07 00:24:09;;;;;;;6.10;2.10;;;;;;;;;;5051967;28;20112;-64
2022/11/07 00:26:35;;;;;;;7.75;2.17;;;;;;;;;;5057427;28;20037;-64
2022/11/07 00:29:01;;;;;;;11.52;2.63;;;;;;;;;;5066724;28;20568;-64
2022/11/07 00:31:27;;;;;;;7.07;2.28;;;;;;;;;;5067638;28;20029;-64
2022/11/07 00:33:52;;;;;;;6.38;1.80;;;;;;;;;;5067385;28;20572;-65
2022/11/07 00:36:23;;;;;;;7.65;2.42;;;;;;;;;;5066973;28;20036;-64
2022/11/07 00:38:49;;;;;;;6.68;2.10;;;;;;;;;;5064457;28;20033;-64
2022/11/07 00:41:14;;;;;;;5.95;2.63;;;;;;;;;;5047328;28;20036;-64
2022/11/07 00:43:40;;;;;;;10.93;2.95;;;;;;;;;;5046975;28;20027;-64
2022/11/07 00:46:07;;;;;;;10.90;2.28;;;;;;;;;;5045523;28;20061;-64
2022/11/07 00:48:32;;;;;;;6.07;2.22;;;;;;;;;;5047066;28;20060;-64
2022/11/07 00:51:13;;;;;;;8.57;2.10;;;;;;;;;;5061377;28;20122;-64
2022/11/07 00:53:39;;;;;;;6.47;2.17;;;;;;;;;;5061757;28;20124;-64
2022/11/07 00:56:07;;;;;;;10.07;2.60;;;;;;;;;;5047089;28;20028;-64
2022/11/07 00:58:33;;;;;;;13.18;2.63;;;;;;;;;;5046977;28;20098;-64
2022/11/07 01:00:59;;;;;;;6.03;1.83;;;;;;;;;;5047010;28;20027;-64
2022/11/07 01:06:10;;;;;;;7.72;2.20;;;;;;;;;;5046801;28;20490;-64
2022/11/07 01:08:35;;;;;;;8.77;2.58;;;;;;;;;;5046932;28;20036;-64
2022/11/07 01:11:06;;;;;;;7.68;2.17;;;;;;;;;;5046248;28;20021;-64
2022/11/07 01:13:31;;;;;;;9.00;1.73;;;;;;;;;;5044373;28;20112;-64
2022/11/07 01:15:57;;;;;;;10.65;1.88;;;;;;;;;;5045496;28;20096;-64
2022/11/07 01:18:22;;;;;;;6.97;1.98;;;;;;;;;;5045194;28;20116;-64
2022/11/07 01:20:48;;;;;;;7.15;2.20;;;;;;;;;;5045771;28;20064;-64
2022/11/07 01:23:14;;;;;;;11.95;1.83;;;;;;;;;;5045690;28;20032;-64
2022/11/07 01:25:39;;;;;;;12.45;2.08;;;;;;;;;;5046040;28;20405;-63
2022/11/07 01:28:06;;;;;;;9.65;2.00;;;;;;;;;;5045587;28;20097;-64
2022/11/07 01:30:32;;;;;;;5.72;2.20;;;;;;;;;;5045755;28;20033;-64
2022/11/07 01:32:57;;;;;;;8.57;2.00;;;;;;;;;;5044770;28;20036;-64
2022/11/07 01:35:23;;;;;;;8.20;1.85;;;;;;;;;;5045968;28;20032;-64
2022/11/07 01:37:48;;;;;;;9.23;2.10;;;;;;;;;;5045417;28;20033;-64
2022/11/07 01:40:14;;;;;;;7.32;2.15;;;;;;;;;;5046271;28;20702;-64
2022/11/07 01:42:39;;;;;;;6.53;1.80;;;;;;;;;;5045541;28;20037;-64
2022/11/07 01:45:05;;;;;;;7.50;1.55;;;;;;;;;;5045294;28;20146;-64
2022/11/07 01:47:36;;;;;;;7.05;1.88;;;;;;;;;;5045006;28;20051;-64
2022/11/07 01:50:04;;;;;;;11.07;1.67;;;;;;;;;;5050866;28;20115;-63
2022/11/07 01:52:42;;;;;;;14.38;2.47;;;;;;;;;;5064120;28;20017;-64
2022/11/07 01:55:18;;;;;;;8.63;1.58;;;;;;;;;;5065786;28;20016;-64
2022/11/07 01:58:04;;;;;;;7.20;2.00;;;;;;;;;;5065651;28;20553;-64
2022/11/07 02:00:30;;;;;;;7.60;1.55;;;;;;;;;;5065671;28;20609;-64
2022/11/07 02:03:09;;;;;;;6.68;1.75;;;;;;;;;;5065774;28;20060;-64
2022/11/07 02:05:43;;;;;;;5.57;2.05;;;;;;;;;;5065663;28;20037;-64
2022/11/07 02:08:10;;;;;;;9.10;1.50;;;;;;;;;;5065391;28;20053;-64
2022/11/07 02:10:38;;;;;;;10.25;1.58;;;;;;;;;;5063902;28;20108;-64
2022/11/07 02:13:04;;;;;;;7.72;2.58;;;;;;;;;;5064973;28;20044;-64
2022/11/07 02:15:31;;;;;;;9.10;1.95;;;;;;;;;;5064689;28;20052;-64
2022/11/07 02:17:57;;;;;;;4.88;1.35;;;;;;;;;;5057304;28;20040;-64
2022/11/07 02:20:22;;;;;;;6.22;1.77;;;;;;;;;;5065088;28;20120;-64
2022/11/07 02:22:55;;;;;;;9.45;1.67;;;;;;;;;;5065518;28;20107;-64
2022/11/07 02:25:22;;;;;;;8.93;1.80;;;;;;;;;;5065294;28;20521;-64
2022/11/07 02:27:51;;;;;;;5.78;1.65;;;;;;;;;;5065524;28;20062;-64
2022/11/07 02:30:23;;;;;;;14.02;2.75;;;;;;;;;;5064668;28;20036;-64
2022/11/07 02:32:49;;;;;;;13.95;2.20;;;;;;;;;;5047391;28;20120;-63
2022/11/07 02:35:35;;;;;;;12.35;1.90;;;;;;;;;;5025128;28;20025;-64
2022/11/07 02:38:05;;;;;;;7.68;1.58;;;;;;;;;;5025433;28;20083;-64
2022/11/07 02:40:31;;;;;;;9.15;1.77;;;;;;;;;;5019534;28;20075;-64
2022/11/07 02:42:58;;;;;;;10.30;1.73;;;;;;;;;;5037839;28;20025;-63
2022/11/07 02:45:28;;;;;;;5.93;1.90;;;;;;;;;;5040167;28;20037;-64
2022/11/07 02:47:53;;;;;;;9.85;2.08;;;;;;;;;;5043178;28;20049;-64
2022/11/07 02:50:18;;;;;;;8.73;1.77;;;;;;;;;;5053281;28;20029;-64
2022/11/07 02:52:44;;;;;;;7.85;1.98;;;;;;;;;;5064900;28;20447;-64
2022/11/07 02:55:11;;;;;;;6.50;1.75;;;;;;;;;;5049219;28;20040;-64
2022/11/07 02:57:36;;;;;;;4.97;1.77;;;;;;;;;;5024781;28;20510;-64
2022/11/07 03:00:03;;;;;;;7.35;1.70;;;;;;;;;;5024894;28;20045;-64
2022/11/07 03:02:29;;;;;;;13.05;1.75;;;;;;;;;;5023225;28;20384;-64
2022/11/07 03:04:54;;;;;;;8.70;1.40;;;;;;;;;;5039758;28;20796;-64
2022/11/07 03:07:19;;;;;;;5.63;1.33;;;;;;;;;;5044873;28;20052;-64
2022/11/07 03:09:45;;;;;;;7.63;1.60;;;;;;;;;;5041638;28;20112;-64
2022/11/07 03:12:10;;;;;;;7.95;1.55;;;;;;;;;;5041129;28;20124;-64
2022/11/07 03:14:35;;;;;;;7.05;1.75;;;;;;;;;;5043595;28;20179;-64
2022/11/07 03:17:01;;;;;;;9.50;2.10;;;;;;;;;;5036484;28;20053;-64
2022/11/07 03:19:26;;;;;;;8.45;1.65;;;;;;;;;;5024543;28;20472;-64
2022/11/07 03:21:51;;;;;;;7.93;1.70;;;;;;;;;;5024716;28;20034;-64
2022/11/07 03:24:17;;;;;;;4.95;1.63;;;;;;;;;;5026496;28;20048;-64
2022/11/07 03:26:42;;;;;;;8.30;1.42;;;;;;;;;;5028707;28;20065;-64
2022/11/07 03:29:08;;;;;;;6.88;1.50;;;;;;;;;;5028642;28;20168;-64
2022/11/07 03:31:33;;;;;;;6.57;1.50;;;;;;;;;;5028745;28;20061;-64
2022/11/07 03:33:58;;;;;;;8.70;1.67;;;;;;;;;;5028986;28;20017;-64
2022/11/07 03:36:24;;;;;;;12.20;1.58;;;;;;;;;;5028497;28;20806;-63
2022/11/07 03:38:49;;;;;;;8.68;1.77;;;;;;;;;;5031450;28;20033;-64
2022/11/07 03:41:16;;;;;;;9.77;1.77;;;;;;;;;;5048707;28;20510;-64
2022/11/07 03:43:44;;;;;;;12.05;1.70;;;;;;;;;;5046871;28;20025;-64
2022/11/07 03:46:10;;;;;;;10.55;1.63;;;;;;;;;;5048591;28;20049;-64
2022/11/07 03:48:35;;;;;;;12.48;2.00;;;;;;;;;;5047859;28;20037;-64
2022/11/07 03:51:01;;;;;;;5.75;1.42;;;;;;;;;;5063135;28;20043;-64
2022/11/07 03:53:26;;;;;;;6.30;1.70;;;;;;;;;;5068012;28;20036;-64
2022/11/07 03:55:54;;;;;;;3.13;1.08;;;;;;;;;;5057965;28;20029;-64
2022/11/07 03:58:19;;;;;;;8.85;2.13;;;;;;;;;;5048632;28;20049;-64
2022/11/07 04:00:44;;;;;;;3.83;1.75;;;;;;;;;;5047773;28;20064;-63
2022/11/07 04:03:10;;;;;;;8.70;1.70;;;;;;;;;;5048248;28;20087;-64
2022/11/07 04:05:35;;;;;;;5.15;1.50;;;;;;;;;;5046705;28;20055;-64
2022/11/07 04:08:00;;;;;;;8.02;1.30;;;;;;;;;;5046388;28;20057;-64
2022/11/07 04:10:26;;;;;;;5.80;1.58;;;;;;;;;;5050100;28;20050;-64
2022/11/07 04:18:22;;;;;;;5.93;1.90;;;;;;;;;;5067983;28;20516;-64
2022/11/07 04:20:47;;;;;;;9.00;1.63;;;;;;;;;;5067865;28;20048;-64
2022/11/07 04:23:12;;;;;;;6.57;1.67;;;;;;;;;;5049791;28;20534;-64
2022/11/07 04:28:21;;;;;;;11.90;2.05;;;;;;;;;;5047276;28;20039;-64
2022/11/07 04:30:47;;;;;;;6.28;1.63;;;;;;;;;;5047775;28;20428;-64
2022/11/07 04:33:12;;;;;;;10.77;2.47;;;;;;;;;;5047720;28;20033;-64
2022/11/07 04:35:37;;;;;;;7.93;1.80;;;;;;;;;;5035281;28;20033;-64
2022/11/07 04:38:03;;;;;;;4.10;1.52;;;;;;;;;;5045216;28;20689;-64
2022/11/07 04:40:28;;;;;;;8.23;1.98;;;;;;;;;;5046194;28;20032;-64
2022/11/07 04:42:54;;;;;;;6.60;1.45;;;;;;;;;;5045800;28;20028;-64
2022/11/07 04:45:19;;;;;;;9.25;1.58;;;;;;;;;;5047543;28;20029;-64
2022/11/07 04:47:45;;;;;;;9.27;1.55;;;;;;;;;;5044752;28;20049;-64
2022/11/07 04:50:13;;;;;;;5.22;1.60;;;;;;;;;;5039222;28;20029;-64
2022/11/07 04:52:39;;;;;;;10.23;2.08;;;;;;;;;;5045609;28;20120;-64
2022/11/07 04:55:06;;;;;;;13.15;1.98;;;;;;;;;;5046493;28;20111;-64
2022/11/07 04:57:31;;;;;;;12.95;1.33;;;;;;;;;;5043162;28;20096;-64
2022/11/07 04:59:57;;;;;;;5.38;1.88;;;;;;;;;;5038366;28;20521;-64
2022/11/07 05:02:23;;;;;;;6.35;1.30;;;;;;;;;;5044391;28;20086;-64
2022/11/07 05:04:50;;;;;;;7.78;1.60;;;;;;;;;;5046199;28;20112;-64
2022/11/07 05:07:16;;;;;;;6.65;1.60;;;;;;;;;;5047800;28;20185;-64
2022/11/07 05:09:41;;;;;;;8.73;1.35;;;;;;;;;;5044804;28;20128;-64
2022/11/07 05:12:07;;;;;;;6.80;1.40;;;;;;;;;;5047019;28;20040;-64
2022/11/07 05:14:34;;;;;;;8.00;1.55;;;;;;;;;;5045082;28;20048;-64
2022/11/07 05:16:59;;;;;;;14.07;2.10;;;;;;;;;;5039445;28;20059;-64
2022/11/07 05:19:25;;;;;;;8.95;1.67;;;;;;;;;;5038165;28;20406;-64
2022/11/07 05:23:10;;;;;;;6.15;1.58;;;;;;;;;;5044971;28;20036;-64
2022/11/07 05:24:35;;;;;;;7.78;1.60;;;;;;;;;;5046379;28;20041;-64
2022/11/07 05:27:01;;;;;;;10.80;1.77;;;;;;;;;;5046382;28;20037;-64
2022/11/07 05:29:26;;;;;;;10.63;1.50;;;;;;;;;;5045814;28;20050;-64
2022/11/07 05:31:51;;;;;;;8.25;1.77;;;;;;;;;;5046297;28;20822;-64
2022/11/07 05:34:16;;;;;;;6.47;1.27;;;;;;;;;;5045231;28;20024;-64
2022/11/07 05:36:42;;;;;;;5.05;1.38;;;;;;;;;;5041916;28;20029;-63
2022/11/07 05:39:07;;;;;;;5.50;1.50;;;;;;;;;;5044286;28;20467;-64
2022/11/07 05:41:34;;;;;;;10.95;1.85;;;;;;;;;;5046232;28;20037;-64
2022/11/07 05:43:59;;;;;;;9.82;2.17;;;;;;;;;;5045613;28;20461;-64
2022/11/07 05:46:25;;;;;;;5.50;1.50;;;;;;;;;;5046227;28;20519;-64
2022/11/07 05:48:50;;;;;;;8.05;1.98;;;;;;;;;;5045479;28;20511;-64
2022/11/07 05:51:16;;;;;;;14.02;1.77;;;;;;;;;;5045960;28;20037;-64
2022/11/07 05:53:41;;;;;;;10.63;1.73;;;;;;;;;;5042215;28;20037;-64
2022/11/07 05:56:06;;;;;;;10.80;1.95;;;;;;;;;;5032613;28;20033;-64
2022/11/07 05:58:32;;;;;;;3.60;1.00;;;;;;;;;;5025199;28;20021;-64
2022/11/07 06:01:05;;;;;;;9.27;1.55;;;;;;;;;;5046045;28;20594;-65
2022/11/07 06:03:30;;;;;;;3.67;1.35;;;;;;;;;;5034721;28;20060;-64
2022/11/07 06:05:56;;;;;;;11.80;2.42;;;;;;;;;;5033057;28;20082;-64
2022/11/07 06:08:21;;;;;;;6.10;2.25;;;;;;;;;;5045453;28;20132;-64
2022/11/07 06:10:47;;;;;;;8.93;1.77;;;;;;;;;;5040101;28;20403;-64
2022/11/07 06:13:15;;;;;;;13.27;1.80;;;;;;;;;;5026339;28;20037;-64
2022/11/07 06:15:41;;;;;;;7.93;1.60;;;;;;;;;;5025637;28;20049;-64
2022/11/07 06:18:11;;;;;;;16.95;1.92;;;;;;;;;;5025745;28;20037;-64
2022/11/07 06:20:36;;;;;;;6.28;1.30;;;;;;;;;;5037627;28;20120;-64
2022/11/07 06:23:04;;;;;;;10.80;1.60;;;;;;;;;;5045335;28;20123;-64
2022/11/07 06:25:30;;;;;;;7.70;1.73;;;;;;;;;;5045189;28;20040;-64
2022/11/07 06:28:04;;;;;;;5.53;1.88;;;;;;;;;;5034453;28;20029;-64
2022/11/07 06:30:30;;;;;;;13.73;2.20;;;;;;;;;;5025190;28;20067;-64
2022/11/07 06:33:03;;;;;;;11.93;2.20;;;;;;;;;;5025001;28;20124;-64
2022/11/07 06:35:29;;;;;;;7.88;1.65;;;;;;;;;;5023805;28;20033;-65
2022/11/07 06:37:54;;;;;;;11.90;3.08;;;;;;;;;;5025970;28;20041;-64
2022/11/07 06:40:20;;;;;;;9.18;2.30;;;;;;;;;;5036241;28;20090;-64
2022/11/07 06:42:45;;;;;;;8.15;1.70;;;;;;;;;;5038391;28;20047;-64
2022/11/07 06:45:10;;;;;;;5.80;2.17;;;;;;;;;;5041555;28;20048;-64
2022/11/07 06:47:36;;;;;;;10.77;2.25;;;;;;;;;;5038902;28;20426;-64
2022/11/07 06:50:01;;;;;;;13.20;2.35;;;;;;;;;;5038073;28;20040;-64
2022/11/07 06:52:27;;;;;;;10.77;2.38;;;;;;;;;;5033349;28;20469;-64
2022/11/07 06:54:53;;;;;;;7.32;1.98;;;;;;;;;;5025479;28;20049;-64
2022/11/07 06:57:18;;;;;;;9.07;2.00;;;;;;;;;;5050302;28;20037;-64
2022/11/07 06:59:43;;;;;;;13.57;2.42;;;;;;;;;;5064332;28;20509;-64
2022/11/07 07:02:11;;;;;;;8.73;1.58;;;;;;;;;;5041148;28;20136;-64
2022/11/07 07:04:37;;;;;;;14.25;2.83;;;;;;;;;;5033346;28;20026;-65
2022/11/07 07:07:02;;;;;;;14.90;2.88;;;;;;;;;;5035433;28;20028;-64
2022/11/07 07:09:27;;;;;;;8.98;2.15;;;;;;;;;;5034176;28;20033;-64
2022/11/07 07:11:53;;;;;;;11.63;2.00;;;;;;;;;;5039960;28;20041;-64
2022/11/07 07:14:18;;;;;;;8.90;2.42;;;;;;;;;;5037509;28;20040;-64
2022/11/07 07:16:43;;;;;;;9.38;2.28;;;;;;;;;;5042821;28;20445;-64
2022/11/07 07:19:11;;;;;;;9.18;2.10;;;;;;;;;;5042162;28;20048;-65
2022/11/07 07:21:36;;;;;;;8.55;2.17;;;;;;;;;;5042405;28;20041;-66
2022/11/07 07:24:02;;;;;;;8.38;2.40;;;;;;;;;;5040717;28;20109;-65
2022/11/07 07:26:27;;;;;;;9.75;2.65;;;;;;;;;;5033426;28;20172;-65
2022/11/07 07:28:52;;;;;;;9.85;2.10;;;;;;;;;;5042223;28;20048;-66
2022/11/07 07:31:24;;;;;;;6.65;2.10;;;;;;;;;;5037579;28;20032;-66
2022/11/07 07:33:49;;;;;;;13.32;2.30;;;;;;;;;;5040781;28;20695;-66
2022/11/07 07:36:15;;;;;;;14.70;2.42;;;;;;;;;;5063910;28;20132;-66
2022/11/07 07:38:40;;;;;;;6.15;1.92;;;;;;;;;;5062428;28;20423;-67
2022/11/07 07:41:06;;;;;;;9.50;2.25;;;;;;;;;;5043551;28;20415;-67
2022/11/07 07:43:32;;;;;;;6.07;1.52;;;;;;;;;;5046196;28;20017;-66
2022/11/07 07:45:59;;;;;;;13.57;2.80;;;;;;;;;;5042866;28;20049;-67
2022/11/07 07:48:24;;;;;;;11.23;2.00;;;;;;;;;;5035087;28;20063;-67
2022/11/07 07:50:50;;;;;;;13.10;1.85;;;;;;;;;;5038601;28;20072;-69
2022/11/07 07:53:15;;;;;;;6.80;1.67;;;;;;;;;;5042221;28;20033;-68
2022/11/07 07:55:41;;;;;;;7.63;2.00;;;;;;;;;;5044309;28;20035;-67
2022/11/07 07:58:06;;;;;;;13.30;2.05;;;;;;;;;;5044939;28;20032;-67
2022/11/07 08:00:32;;;;;;;8.32;1.75;;;;;;;;;;5044209;28;20036;-68
2022/11/07 08:03:11;;;;;;;10.02;1.80;;;;;;;;;;5043578;28;20150;-67
2022/11/07 08:05:37;;;;;;;10.35;1.80;;;;;;;;;;5043534;28;20045;-67
2022/11/07 08:08:04;;;;;;;10.15;1.83;;;;;;;;;;5042761;28;20044;-67
2022/11/07 08:10:30;;;;;;;13.48;1.88;;;;;;;;;;5043883;28;20029;-67
2022/11/07 08:12:55;;;;;;;9.35;1.75;;;;;;;;;;5040864;28;20033;-65
2022/11/07 08:15:20;;;;;;;10.48;2.35;;;;;;;;;;5044463;28;20048;-66
2022/11/07 08:17:46;;;;;;;8.27;2.00;;;;;;;;;;5046903;28;20029;-65
2022/11/07 08:20:14;;;;;;;2.85;1.50;;;;;;;;;;5046898;28;20087;-65
2022/11/07 08:22:39;;;;;;;14.00;3.10;;;;;;;;;;5046915;28;20032;-65
2022/11/07 08:25:06;;;;;;;7.05;1.55;;;;;;;;;;5043780;28;20826;-65
2022/11/07 08:27:32;;;;;;;7.78;1.45;;;;;;;;;;5045713;28;20037;-65
2022/11/07 08:29:58;;;;;;;7.22;1.88;;;;;;;;;;5044658;28;20052;-65
2022/11/07 08:32:25;;;;;;;12.02;1.60;;;;;;;;;;5040898;28;20079;-65
2022/11/07 08:34:51;;;;;;;7.93;1.67;;;;;;;;;;5041005;28;20121;-65
2022/11/07 08:37:16;;;;;;;5.88;2.00;;;;;;;;;;5039685;28;20434;-65
2022/11/07 08:39:41;;;;;;;7.15;1.50;;;;;;;;;;5041715;28;20061;-65
2022/11/07 08:42:06;;;;;;;12.00;2.05;;;;;;;;;;5041090;28;20506;-65
2022/11/07 08:44:33;;;;;;;10.10;1.75;;;;;;;;;;5044761;28;20057;-65
2022/11/07 08:46:59;;;;;;;12.65;2.08;;;;;;;;;;5034310;28;20120;-65
2022/11/07 08:49:25;;;;;;;9.27;1.58;;;;;;;;;;5045686;28;20108;-65
2022/11/07 08:51:50;;;;;;;13.73;1.75;;;;;;;;;;5044351;28;20072;-65
2022/11/07 08:54:15;;;;;;;7.38;1.63;;;;;;;;;;5044261;28;20071;-65
2022/11/07 08:56:40;;;;;;;6.35;1.73;;;;;;;;;;5043298;28;20037;-65
2022/11/07 08:59:08;;;;;;;6.80;1.63;;;;;;;;;;5045826;28;20514;-65
2022/11/07 09:01:33;;;;;;;7.82;1.80;;;;;;;;;;5045696;28;20025;-65
2022/11/07 09:03:58;;;;;;;7.00;1.67;;;;;;;;;;5043920;28;20387;-65
2022/11/07 09:06:24;;;;;;;11.10;1.60;;;;;;;;;;5044087;28;20128;-65
2022/11/07 09:08:49;;;;;;;11.10;2.08;;;;;;;;;;5036016;28;20380;-65
2022/11/07 09:11:17;;;;;;;7.18;1.50;;;;;;;;;;5041487;28;20048;-65
2022/11/07 09:13:43;;;;;;;4.88;1.30;;;;;;;;;;5037684;28;20394;-66
2022/11/07 09:16:09;;;;;;;8.77;1.60;;;;;;;;;;5044293;28;20482;-67
2022/11/07 09:18:34;;;;;;;5.22;1.40;;;;;;;;;;5037277;28;20037;-65
2022/11/07 09:20:59;;;;;;;7.03;1.50;;;;;;;;;;5043583;28;20040;-65
2022/11/07 09:23:25;;;;;;;13.50;1.75;;;;;;;;;;5024965;28;20037;-65
2022/11/07 09:25:50;;;;;;;9.15;1.63;;;;;;;;;;5023787;28;20044;-65
2022/11/07 09:28:16;;;;;;;9.85;1.65;;;;;;;;;;5029984;28;20025;-65
2022/11/07 09:30:41;;;;;;;9.43;1.85;;;;;;;;;;5045568;28;20434;-65
2022/11/07 09:33:07;;;;;;;4.80;1.73;;;;;;;;;;5044418;28;20037;-65
2022/11/07 09:35:32;;;;;;;6.90;1.30;;;;;;;;;;5044819;28;20059;-65
2022/11/07 09:37:57;;;;;;;12.73;1.92;;;;;;;;;;5035436;28;20422;-66
2022/11/07 09:40:43;;;;;;;10.30;1.30;;;;;;;;;;5035949;28;20453;-65
2022/11/07 09:43:14;;;;;;;10.95;1.67;;;;;;;;;;5019737;28;20537;-66
2022/11/07 09:45:52;;;;;;;8.30;1.60;;;;;;;;;;5030999;28;20071;-65
2022/11/07 09:48:22;;;;;;;3.78;1.20;;;;;;;;;;5036689;28;20457;-65
2022/11/07 09:50:50;;;;;;;9.93;1.80;;;;;;;;;;5045685;28;20037;-65
2022/11/07 09:53:30;;;;;;;6.95;1.42;;;;;;;;;;5045416;28;20606;-65
2022/11/07 09:56:00;;;;;;;5.65;1.20;;;;;;;;;;5043005;28;20491;-65
2022/11/07 09:58:35;;;;;;;7.50;1.77;;;;;;;;;;5041776;28;20033;-65
2022/11/07 10:01:07;;;;;;;4.00;1.10;;;;;;;;;;5046357;28;20110;-65
2022/11/07 10:03:35;;;;;;;5.55;1.17;;;;;;;;;;5041116;28;20036;-65
2022/11/07 10:06:15;;;;;;;6.43;1.60;;;;;;;;;;5035221;28;20051;-65
2022/11/07 10:08:46;;;;;;;14.15;1.40;;;;;;;;;;5043059;28;20099;-65
2022/11/07 10:11:28;;;;;;;10.45;1.27;;;;;;;;;;5042441;28;20041;-65
2022/11/07 10:14:07;;;;;;;11.95;1.70;;;;;;;;;;5037799;28;20041;-65
2022/11/07 10:16:54;;;;;;;9.88;1.73;;;;;;;;;;5026660;28;20025;-65
2022/11/07 10:19:43;;;;;;;10.18;1.98;;;;;;;;;;5023086;28;20122;-65
2022/11/07 10:22:15;;;;;;;2.47;1.20;;;;;;;;;;5024371;28;20048;-65
2022/11/07 10:25:20;;;;;;;8.60;1.35;;;;;;;;;;5023230;28;20109;-65
2022/11/07 10:28:13;;;;;;;5.32;1.40;;;;;;;;;;5016317;28;20558;-65
2022/11/07 10:30:39;;;;;;;10.73;1.40;;;;;;;;;;5044534;28;20069;-65
2022/11/07 10:33:40;;;;;;;7.65;1.45;;;;;;;;;;5043680;28;20276;-65
2022/11/07 10:36:26;;;;;;;8.75;1.63;;;;;;;;;;5043909;28;20041;-65
2022/11/07 10:38:52;;;;;;;4.72;1.73;;;;;;;;;;5042456;28;20106;-65
2022/11/07 10:41:21;;;;;;;8.55;1.95;;;;;;;;;;5037909;28;20510;-65
2022/11/07 10:43:51;;;;;;;8.10;1.95;;;;;;;;;;5042321;28;20037;-65
2022/11/07 10:46:38;;;;;;;5.43;1.30;;;;;;;;;;5039220;28;20048;-65
2022/11/07 10:49:20;;;;;;;3.95;1.40;;;;;;;;;;5040969;28;20464;-65
2022/11/07 10:51:46;;;;;;;3.78;1.00;;;;;;;;;;5042437;28;20082;-65
2022/11/07 10:54:25;;;;;;;4.28;1.00;;;;;;;;;;5027111;28;20087;-65
2022/11/07 10:57:11;;;;;;;5.65;1.10;;;;;;;;;;5039689;28;20057;-65
2022/11/07 10:59:43;;;;;;;7.05;1.40;;;;;;;;;;5043680;28;20029;-65
2022/11/07 11:02:40;;;;;;;5.93;1.30;;;;;;;;;;5042110;28;20037;-65
2022/11/07 11:05:39;;;;;;;7.50;1.30;;;;;;;;;;5034187;28;20033;-65
2022/11/07 11:08:30;;;;;;;5.40;1.38;;;;;;;;;;5031997;28;20076;-65
2022/11/07 11:10:56;;;;;;;6.78;1.10;;;;;;;;;;5035736;28;20042;-65
2022/11/07 11:13:28;;;;;;;2.22;1.17;;;;;;;;;;5044848;28;20028;-65
2022/11/07 11:15:55;;;;;;;3.63;1.13;;;;;;;;;;5036668;28;20052;-65
2022/11/07 11:18:21;;;;;;;6.22;1.30;;;;;;;;;;5038369;28;20029;-65
2022/11/07 11:21:01;;;;;;;4.45;1.00;;;;;;;;;;5041387;28;20055;-65
2022/11/07 11:23:30;;;;;;;4.57;1.08;;;;;;;;;;5032727;28;20040;-65
2022/11/07 11:26:27;;;;;;;10.30;2.42;;;;;;;;;;5030478;28;20043;-65
2022/11/07 11:28:59;;;;;;;6.38;1.80;;;;;;;;;;5045075;28;20041;-65
2022/11/07 11:31:37;;;;;;;8.85;1.58;;;;;;;;;;5026633;28;20029;-65
2022/11/07 11:34:08;;;;;;;9.65;1.77;;;;;;;;;;5032631;28;20049;-65
2022/11/07 11:36:40;;;;;;;4.00;1.42;;;;;;;;;;5042820;28;20071;-65
2022/11/07 11:39:25;;;;;;;8.38;1.90;;;;;;;;;;5035800;28;20046;-65
2022/11/07 11:41:54;;;;;;;6.18;1.88;;;;;;;;;;5026161;28;20048;-65
2022/11/07 11:44:27;;;;;;;7.40;1.55;;;;;;;;;;5035188;28;20072;-65
2022/11/07 11:47:01;;;;;;;;;;;;;;;;;;5047610;28;20048;-65
2022/11/07 11:49:32;;;;;;;12.07;1.35;;;;;;;;;;5047901;28;19958;-65
2022/11/07 11:52:04;;;;;;;7.88;1.48;;;;;;;;;;5041452;28;20040;-65
2022/11/07 11:54:29;;;;;;;6.13;1.30;;;;;;;;;;5045848;28;20506;-65
2022/11/07 11:57:03;;;;;;;10.68;2.08;;;;;;;;;;5041911;28;20549;-65
2022/11/07 11:59:28;;;;;;;;;;;;;;;;;;5042019;28;20755;-65
2022/11/07 12:02:05;;;;;;;6.67;1.80;;;;;;;;;;5046182;28;20465;-65
2022/11/07 12:04:40;;;;;;;7.05;1.50;;;;;;;;;;5043303;28;20079;-65
2022/11/07 12:07:44;;;;;;;8.77;1.65;;;;;;;;;;5029119;28;20581;-65
2022/11/07 12:10:27;;;;;;;10.70;1.92;;;;;;;;;;5034825;28;20053;-65
2022/11/07 12:13:10;;;;;;;9.60;1.80;;;;;;;;;;5066181;28;20036;-65
2022/11/07 12:15:54;;;;;;;3.58;1.40;;;;;;;;;;5066706;28;20464;-65
2022/11/07 12:18:45;;;;;;;4.90;1.33;;;;;;;;;;5066943;28;20517;-65
2022/11/07 12:21:26;;;;;;;8.32;1.88;;;;;;;;;;5036635;28;20502;-65
2022/11/07 12:24:07;;;;;;;13.00;2.03;;;;;;;;;;5052443;28;20047;-65
2022/11/07 12:26:42;;;;;;;3.97;1.70;;;;;;;;;;5064574;28;20089;-65
2022/11/07 12:29:30;;;;;;;12.55;2.42;;;;;;;;;;5044966;28;20041;-65
2022/11/07 12:32:23;;;;;;;7.50;1.63;;;;;;;;;;5020731;28;20041;-66
2022/11/07 12:35:10;;;;;;;4.75;2.00;;;;;;;;;;5030259;28;20553;-65
2022/11/07 12:38:20;;;;;;;8.57;2.08;;;;;;;;;;5034673;28;20148;-65
2022/11/07 12:41:22;;;;;;;5.53;1.27;;;;;;;;;;5021990;28;20041;-65
2022/11/07 12:44:03;;;;;;;8.48;1.80;;;;;;;;;;4992692;28;20076;-65
2022/11/07 12:46:47;;;;;;;6.15;1.92;;;;;;;;;;5025591;28;20148;-65
2022/11/07 12:49:13;;;;;;;7.38;1.60;;;;;;;;;;5032801;28;20034;-65
2022/11/07 12:51:50;;;;;;;6.57;1.40;;;;;;;;;;5026502;28;20048;-65
2022/11/07 12:54:36;;;;;;;8.20;1.70;;;;;;;;;;5040461;28;20045;-65
2022/11/07 12:57:05;;;;;;;8.77;1.92;;;;;;;;;;5044685;28;20048;-65
2022/11/07 12:59:31;;;;;;;7.70;1.83;;;;;;;;;;5045567;28;20044;-65
2022/11/07 13:02:21;;;;;;;5.43;1.70;;;;;;;;;;5043563;28;20521;-64
2022/11/07 13:05:02;;;;;;;6.93;1.65;;;;;;;;;;5045887;28;20024;-65
2022/11/07 13:07:36;;;;;;;5.78;1.15;;;;;;;;;;5046608;28;20060;-65
2022/11/07 13:10:10;;;;;;;5.57;1.52;;;;;;;;;;5046367;28;20052;-64
2022/11/07 13:12:42;;;;;;;9.63;1.70;;;;;;;;;;5034894;28;20045;-64
2022/11/07 13:15:10;;;;;;;4.55;1.58;;;;;;;;;;5044167;28;20033;-65
2022/11/07 13:17:41;;;;;;;9.15;2.17;;;;;;;;;;5037950;28;20037;-64
2022/11/07 13:20:19;;;;;;;5.40;1.60;;;;;;;;;;5028578;28;20109;-65
2022/11/07 13:22:45;;;;;;;6.93;1.40;;;;;;;;;;5024065;28;20071;-65
2022/11/07 13:25:10;;;;;;;13.85;1.77;;;;;;;;;;5025419;28;20037;-65
2022/11/07 13:27:37;;;;;;;4.70;1.30;;;;;;;;;;5024361;28;20099;-65
2022/11/07 13:30:29;;;;;;;4.93;1.50;;;;;;;;;;5024202;28;20040;-65
2022/11/07 13:32:55;;;;;;;6.28;1.70;;;;;;;;;;5029075;28;20059;-65
2022/11/07 13:35:32;;;;;;;4.32;1.80;;;;;;;;;;5033350;28;20029;-65
2022/11/07 13:37:59;;;;;;;7.10;2.03;;;;;;;;;;5030398;28;20029;-65
2022/11/07 13:40:29;;;;;;;6.57;1.60;;;;;;;;;;5025936;28;20119;-65
2022/11/07 13:43:10;;;;;;;9.40;2.13;;;;;;;;;;5029479;28;20523;-64
2022/11/07 13:45:48;;;;;;;10.70;2.00;;;;;;;;;;5033455;28;20060;-64
2022/11/07 13:48:31;;;;;;;10.02;2.00;;;;;;;;;;5039219;28;20076;-64
2022/11/07 13:51:04;;;;;;;8.38;2.63;;;;;;;;;;5022409;28;20091;-65
2022/11/07 13:53:36;;;;;;;8.87;1.73;;;;;;;;;;5023947;28;20037;-64
2022/11/07 13:56:17;;;;;;;4.22;1.33;;;;;;;;;;5025629;28;20283;-64
2022/11/07 13:58:43;;;;;;;6.70;1.95;;;;;;;;;;5026155;28;20029;-64
2022/11/07 14:01:11;;;;;;;6.15;1.77;;;;;;;;;;5026772;28;20041;-64
2022/11/07 14:03:36;;;;;;;6.22;1.55;;;;;;;;;;5037747;28;20036;-65
2022/11/07 14:06:02;;;;;;;8.50;1.70;;;;;;;;;;5062842;28;20198;-64
2022/11/07 14:08:31;;;;;;;12.23;1.88;;;;;;;;;;5065396;28;20059;-64
2022/11/07 14:10:57;;;;;;;6.75;1.75;;;;;;;;;;5065628;28;20097;-64
2022/11/07 14:13:27;;;;;;;12.27;1.83;;;;;;;;;;5066296;28;20039;-65
2022/11/07 14:15:56;;;;;;;8.15;1.52;;;;;;;;;;5051179;28;20041;-64
2022/11/07 14:18:25;;;;;;;6.75;1.38;;;;;;;;;;5026002;28;20415;-64
2022/11/07 14:20:53;;;;;;;7.03;1.65;;;;;;;;;;5025347;28;20114;-64
2022/11/07 14:23:24;;;;;;;3.20;1.20;;;;;;;;;;5024373;28;20359;-64
2022/11/07 14:25:57;;;;;;;5.72;1.48;;;;;;;;;;5040680;28;20065;-64
2022/11/07 14:28:23;;;;;;;6.57;1.50;;;;;;;;;;5040957;28;20530;-64
2022/11/07 14:30:51;;;;;;;3.17;1.38;;;;;;;;;;5025939;28;20554;-64
2022/11/07 14:33:19;;;;;;;10.30;1.60;;;;;;;;;;5025279;28;20178;-64
2022/11/07 14:35:46;;;;;;;8.65;1.40;;;;;;;;;;5025575;28;20090;-64
2022/11/07 14:38:23;;;;;;;8.80;1.95;;;;;;;;;;5025141;28;20045;-64
2022/11/07 14:40:51;;;;;;;5.50;1.45;;;;;;;;;;5043631;28;20044;-64
2022/11/07 14:43:19;;;;;;;9.05;1.48;;;;;;;;;;5045772;28;20557;-65
2022/11/07 14:45:45;;;;;;;5.22;1.90;;;;;;;;;;5041601;28;20072;-64
2022/11/07 14:48:12;;;;;;;3.72;1.50;;;;;;;;;;5044909;28;20065;-64
2022/11/07 14:50:38;;;;;;;7.15;1.65;;;;;;;;;;5041507;28;20041;-64
2022/11/07 14:53:07;;;;;;;6.60;1.48;;;;;;;;;;5038185;28;20041;-64
2022/11/07 14:55:40;;;;;;;6.00;1.20;;;;;;;;;;5031986;28;20031;-64
2022/11/07 14:58:05;;;;;;;6.70;2.28;;;;;;;;;;5032510;28;20475;-64
2022/11/07 15:00:32;;;;;;;7.05;1.23;;;;;;;;;;5024864;28;20034;-64
2022/11/07 15:02:58;;;;;;;4.82;1.27;;;;;;;;;;5031422;28;20033;-64
2022/11/07 15:05:48;;;;;;;6.80;1.52;;;;;;;;;;5043165;28;20047;-64
2022/11/07 15:08:32;;;;;;;6.20;1.33;;;;;;;;;;5042840;28;20029;-64